Terminal Aerodrome Forecast
Issued by NWS

Home | Current Version | Previous Version | Text Only | Print | Product List | Glossary On
Versions: 1 2 3 4 5 6 7 8 9 10 11 12
000
FTUS46 KLOX 292300
TAFPMD
TAF
KPMD 292339Z 3000/3024 25015G20KT P6SM SKC
     FM300300 26012KT P6SM SKC
     FM300500 22009KT P6SM SKC
     FM301800 27014KT P6SM SKC
     FM302000 28017G23KT P6SM SKC
     FM302200 26022G30KT P6SM SKC=

USA.gov is the U.S. government's official web portal to all federal, state and local government web resources and services.